createdAt,value
2017-06-08T00:02:11.791Z,74.50
2017-06-08T00:04:40.008Z,74.40
2017-06-08T00:07:08.542Z,74.20
2017-06-08T00:09:36.751Z,74.40
2017-06-08T00:12:04.963Z,74.70
2017-06-08T00:14:33.163Z,74.40
2017-06-08T00:17:01.371Z,74.00
2017-06-08T00:19:29.988Z,74.50
2017-06-08T00:21:58.174Z,74.70
2017-06-08T00:24:26.370Z,74.80
2017-06-08T00:26:54.553Z,75.30
2017-06-08T00:29:23.489Z,75.20
2017-06-08T00:31:52.098Z,75.10
2017-06-08T00:34:20.295Z,75.40
2017-06-08T00:36:48.497Z,75.00
2017-06-08T00:39:16.715Z,75.20
2017-06-08T00:41:44.936Z,75.70
2017-06-08T00:44:13.591Z,75.80
2017-06-08T00:46:41.774Z,75.40
2017-06-08T00:49:09.960Z,76.50
2017-06-08T00:51:38.186Z,76.10
2017-06-08T00:54:06.367Z,75.90
2017-06-08T00:56:34.966Z,75.60
2017-06-08T00:59:03.203Z,75.90
2017-06-08T01:01:31.388Z,75.70
2017-06-08T01:03:59.611Z,75.60
2017-06-08T01:06:28.587Z,76.40
2017-06-08T01:08:57.973Z,76.30
2017-06-08T01:11:26.155Z,76.90
2017-06-08T01:13:54.364Z,76.20
2017-06-08T01:16:22.657Z,76.40
2017-06-08T01:18:50.845Z,76.60
2017-06-08T01:21:19.435Z,77.20
2017-06-08T01:23:47.635Z,77.00
2017-06-08T01:26:15.847Z,77.60
2017-06-08T01:28:44.087Z,77.30
2017-06-08T01:31:12.272Z,77.20
2017-06-08T01:33:41.597Z,77.80
2017-06-08T01:36:09.807Z,77.70
2017-06-08T01:38:38.033Z,77.60
2017-06-08T01:41:06.246Z,77.30
2017-06-08T01:43:34.444Z,77.90
2017-06-08T01:46:02.635Z,77.40
2017-06-08T01:48:31.628Z,77.40
2017-06-08T01:50:59.802Z,77.40
2017-06-08T01:53:29.252Z,77.60
2017-06-08T01:55:57.429Z,77.60
2017-06-08T01:58:25.622Z,77.40
2017-06-08T02:00:53.869Z,77.30
2017-06-08T02:03:22.061Z,77.40
2017-06-08T02:05:50.692Z,77.30
2017-06-08T02:08:19.640Z,77.50
2017-06-08T02:10:47.807Z,77.50
2017-06-08T02:13:16.025Z,77.10
2017-06-08T02:15:44.196Z,77.20
2017-06-08T02:18:12.757Z,77.30
2017-06-08T02:20:40.962Z,77.50
2017-06-08T02:23:09.241Z,77.00
2017-06-08T02:25:37.519Z,77.20
2017-06-08T02:28:05.720Z,77.00
2017-06-08T02:30:34.258Z,77.20
2017-06-08T02:33:03.218Z,77.00
2017-06-08T02:35:31.492Z,77.00
2017-06-08T02:37:59.705Z,76.90
2017-06-08T02:40:27.917Z,77.00
2017-06-08T02:42:56.525Z,77.10
2017-06-08T02:45:24.706Z,76.90
2017-06-08T02:47:52.930Z,77.20
2017-06-08T02:50:21.229Z,76.30
2017-06-08T02:52:49.427Z,76.70
2017-06-08T02:55:18.010Z,76.40
2017-06-08T02:57:46.201Z,76.90
2017-06-08T03:00:14.375Z,76.40
2017-06-08T03:02:42.570Z,76.80
2017-06-08T03:05:10.746Z,76.80
2017-06-08T03:07:39.383Z,77.20
2017-06-08T03:10:07.556Z,76.60
2017-06-08T03:12:35.760Z,76.70
2017-06-08T03:15:05.135Z,76.10
2017-06-08T03:17:33.343Z,76.00
2017-06-08T03:20:01.552Z,75.90
2017-06-08T03:22:30.075Z,75.60
2017-06-08T03:24:59.022Z,75.20
2017-06-08T03:27:27.232Z,75.00
2017-06-08T03:29:55.835Z,75.50
2017-06-08T03:32:24.062Z,74.90
2017-06-08T03:34:52.278Z,74.40
2017-06-08T03:37:20.826Z,74.50
2017-06-08T03:39:49.009Z,73.50
2017-06-08T03:42:17.217Z,74.10
2017-06-08T03:44:46.671Z,73.70
2017-06-08T03:47:14.874Z,73.80
2017-06-08T03:49:43.827Z,73.50
2017-06-08T03:52:12.333Z,73.50
2017-06-08T03:54:40.546Z,72.90
2017-06-08T03:57:08.731Z,72.80
2017-06-08T03:59:37.278Z,72.10
2017-06-08T04:02:05.478Z,72.30
2017-06-08T04:04:33.658Z,72.70
2017-06-08T04:07:02.199Z,71.50
2017-06-08T04:09:30.383Z,70.80
2017-06-08T04:11:59.413Z,71.00
2017-06-08T04:14:27.958Z,71.00
2017-06-08T04:16:56.996Z,70.00
2017-06-08T04:19:25.183Z,70.00
2017-06-08T04:21:53.753Z,70.00
2017-06-08T04:24:21.962Z,70.80
2017-06-08T04:26:50.166Z,70.40
2017-06-08T04:29:18.804Z,70.00
2017-06-08T04:31:47.008Z,70.50
2017-06-08T04:34:15.975Z,70.50
2017-06-08T04:36:44.560Z,70.40
2017-06-08T04:39:12.769Z,70.00
2017-06-08T04:41:41.011Z,69.20
2017-06-08T04:44:09.583Z,68.70
2017-06-08T04:46:37.832Z,68.00
2017-06-08T04:49:06.048Z,68.70
2017-06-08T04:51:34.742Z,69.10
2017-06-08T04:54:02.947Z,68.90
2017-06-08T04:56:31.148Z,69.40
2017-06-08T04:58:59.837Z,69.40
2017-06-08T05:01:28.062Z,69.50
2017-06-08T05:03:56.348Z,69.00
2017-06-08T05:06:25.043Z,68.20
2017-06-08T05:08:53.230Z,69.40
2017-06-08T05:11:21.437Z,67.90
2017-06-08T05:13:50.002Z,67.40
2017-06-08T05:16:18.223Z,67.70
2017-06-08T05:18:47.313Z,68.20
2017-06-08T05:21:15.836Z,68.20
2017-06-08T05:23:44.046Z,68.60
2017-06-08T05:26:12.242Z,67.60
2017-06-08T05:28:41.579Z,67.70
2017-06-08T05:31:09.776Z,67.60
2017-06-08T05:33:37.947Z,67.50
2017-06-08T05:36:06.449Z,67.20
2017-06-08T05:38:35.450Z,66.20
2017-06-08T05:41:04.426Z,66.20
2017-06-08T05:43:32.988Z,65.40
2017-06-08T05:46:01.350Z,64.10
2017-06-08T05:48:29.533Z,64.80
2017-06-08T05:50:58.071Z,63.70
2017-06-08T05:53:27.033Z,60.70
2017-06-08T05:55:55.240Z,60.70
2017-06-08T05:58:23.905Z,61.20
2017-06-08T06:00:52.944Z,62.10
2017-06-08T06:03:21.143Z,62.00
2017-06-08T06:05:49.657Z,61.40
2017-06-08T06:08:17.911Z,60.20
2017-06-08T06:10:46.109Z,62.20
2017-06-08T06:13:14.668Z,60.80
2017-06-08T06:15:42.847Z,61.10
2017-06-08T06:18:11.098Z,61.10
2017-06-08T06:20:39.809Z,60.30
2017-06-08T06:23:08.564Z,59.30
2017-06-08T06:25:36.783Z,58.80
2017-06-08T06:28:05.347Z,60.00
2017-06-08T06:30:33.532Z,59.40
2017-06-08T06:33:02.500Z,58.10
2017-06-08T06:35:31.222Z,58.70
2017-06-08T06:37:59.432Z,56.80
2017-06-08T06:40:27.646Z,55.70
2017-06-08T06:42:56.173Z,54.10
2017-06-08T06:45:24.385Z,55.60
2017-06-08T06:47:52.618Z,55.60
2017-06-08T06:50:21.252Z,56.50
2017-06-08T06:52:49.445Z,56.80
2017-06-08T06:55:18.399Z,56.40
2017-06-08T06:57:47.001Z,56.20
2017-06-08T07:00:15.219Z,54.90
2017-06-08T07:02:43.432Z,53.90
2017-06-08T07:05:11.999Z,53.70
2017-06-08T07:07:40.165Z,54.80
2017-06-08T07:10:08.399Z,54.90
2017-06-08T07:12:37.718Z,55.50
2017-06-08T07:15:05.938Z,55.50
2017-06-08T07:17:34.133Z,55.30
2017-06-08T07:20:02.678Z,55.60
2017-06-08T07:22:30.922Z,56.70
2017-06-08T07:24:59.158Z,58.20
2017-06-08T07:27:27.725Z,56.80
2017-06-08T07:29:55.928Z,58.50
2017-06-08T07:32:24.140Z,59.00
2017-06-08T07:34:52.759Z,59.40
2017-06-08T07:37:20.969Z,60.80
2017-06-08T07:39:49.179Z,60.80
2017-06-08T07:42:17.912Z,62.10
2017-06-08T07:44:46.144Z,62.00
2017-06-08T07:47:14.340Z,61.90
2017-06-08T07:49:42.924Z,62.30
2017-06-08T07:52:11.126Z,62.60
2017-06-08T07:54:39.314Z,62.20
2017-06-08T07:57:07.940Z,63.20
2017-06-08T07:59:36.163Z,62.30
2017-06-08T08:02:22.418Z,63.60
2017-06-08T08:04:50.638Z,63.00
2017-06-08T08:07:18.859Z,62.20
2017-06-08T08:09:47.391Z,61.20
2017-06-08T08:12:15.621Z,62.00
2017-06-08T08:14:43.843Z,61.50
2017-06-08T08:17:12.382Z,61.60
2017-06-08T08:19:40.577Z,62.60
2017-06-08T08:22:08.801Z,63.50
2017-06-08T08:24:37.450Z,62.30
2017-06-08T08:27:05.690Z,63.40
2017-06-08T08:29:33.889Z,64.00
2017-06-08T08:32:02.434Z,64.00
2017-06-08T08:34:30.645Z,64.10
2017-06-08T08:36:58.877Z,64.00
2017-06-08T08:39:27.495Z,64.60
2017-06-08T08:41:55.709Z,64.20
2017-06-08T08:44:23.954Z,64.30
2017-06-08T08:46:52.583Z,64.50
2017-06-08T08:49:20.845Z,63.00
2017-06-08T08:51:49.027Z,63.10
2017-06-08T08:54:17.765Z,64.30
2017-06-08T08:56:45.982Z,62.60
2017-06-08T08:59:14.188Z,62.40
2017-06-08T09:01:42.800Z,62.70
2017-06-08T09:04:11.078Z,62.10
2017-06-08T09:06:39.452Z,61.90
2017-06-08T09:09:07.994Z,62.40
2017-06-08T09:11:36.211Z,63.50
2017-06-08T09:14:05.394Z,62.30
2017-06-08T09:16:34.023Z,62.40
2017-06-08T09:19:02.228Z,63.30
2017-06-08T09:21:30.589Z,62.80
2017-06-08T09:23:59.139Z,62.10
2017-06-08T09:26:27.337Z,61.40
2017-06-08T09:28:55.563Z,58.80
2017-06-08T09:31:24.221Z,57.50
2017-06-08T09:33:52.422Z,58.30
2017-06-08T09:36:21.387Z,57.80
2017-06-08T09:38:49.969Z,57.70
2017-06-08T09:41:18.245Z,56.80
2017-06-08T09:43:46.457Z,57.10
2017-06-08T09:46:14.998Z,56.20
2017-06-08T09:48:43.240Z,57.10
2017-06-08T09:51:11.414Z,57.20
2017-06-08T09:53:40.126Z,57.10
2017-06-08T09:56:08.339Z,57.70
2017-06-08T09:58:36.623Z,59.30
2017-06-08T10:01:05.210Z,59.10
2017-06-08T10:03:33.446Z,61.50
2017-06-08T10:06:01.649Z,61.00
2017-06-08T10:08:30.298Z,61.70
2017-06-08T10:10:58.507Z,65.10
2017-06-08T10:13:26.702Z,65.00
2017-06-08T10:15:55.328Z,64.70
2017-06-08T10:18:23.510Z,67.50
2017-06-08T10:20:51.845Z,66.80
2017-06-08T10:23:20.400Z,65.80
2017-06-08T10:25:48.598Z,65.00
2017-06-08T10:28:16.819Z,63.10
2017-06-08T10:30:45.361Z,61.90
2017-06-08T10:33:13.548Z,61.30
2017-06-08T10:35:41.829Z,59.30
2017-06-08T10:38:10.455Z,59.20
2017-06-08T10:40:39.474Z,58.60
2017-06-08T10:43:07.683Z,58.60
2017-06-08T10:45:36.199Z,57.70
2017-06-08T10:48:04.439Z,57.70
2017-06-08T10:50:32.789Z,59.30
2017-06-08T10:53:01.503Z,59.70
2017-06-08T10:55:29.747Z,61.40
2017-06-08T10:57:57.962Z,61.60
2017-06-08T11:00:26.632Z,61.70
2017-06-08T11:02:55.621Z,64.20
2017-06-08T11:05:23.875Z,64.10
2017-06-08T11:07:52.579Z,65.20
2017-06-08T11:10:20.786Z,66.80
2017-06-08T11:12:49.816Z,69.60
2017-06-08T11:15:18.453Z,69.50
2017-06-08T11:17:46.777Z,68.60
2017-06-08T11:20:14.957Z,66.80
2017-06-08T11:22:43.537Z,68.60
2017-06-08T11:25:11.764Z,67.50
2017-06-08T11:27:39.959Z,68.40
2017-06-08T11:30:08.815Z,66.90
2017-06-08T11:32:37.031Z,66.60
2017-06-08T11:35:05.231Z,66.50
2017-06-08T11:37:33.933Z,67.10
2017-06-08T11:40:02.133Z,67.30
2017-06-08T11:42:30.376Z,69.90
2017-06-08T11:44:59.211Z,70.30
2017-06-08T11:47:27.566Z,71.90
2017-06-08T11:49:55.801Z,72.00
2017-06-08T11:52:24.464Z,73.80
2017-06-08T11:54:52.685Z,72.90
2017-06-08T11:57:20.992Z,74.00
2017-06-08T11:59:49.746Z,72.10
2017-06-08T12:02:17.950Z,73.80
2017-06-08T12:04:46.145Z,73.90
2017-06-08T12:07:14.882Z,74.60
2017-06-08T12:09:43.177Z,73.70
2017-06-08T12:12:11.406Z,75.70
2017-06-08T12:14:39.951Z,73.70
2017-06-08T12:17:08.251Z,73.10
2017-06-08T12:19:36.531Z,75.60
2017-06-08T12:22:05.122Z,74.70
2017-06-08T12:24:33.322Z,73.80
2017-06-08T12:27:01.568Z,73.70
2017-06-08T12:29:30.310Z,75.80
2017-06-08T12:31:58.513Z,75.50
2017-06-08T12:34:26.701Z,72.80
2017-06-08T12:36:55.352Z,74.30
2017-06-08T12:39:23.594Z,70.00
2017-06-08T12:41:51.789Z,71.00
2017-06-08T12:44:20.468Z,71.20
2017-06-08T12:46:48.677Z,71.20
2017-06-08T12:49:16.881Z,71.60
2017-06-08T12:51:45.431Z,71.60
2017-06-08T12:54:13.619Z,73.50
2017-06-08T12:56:41.848Z,74.20
2017-06-08T12:59:11.319Z,73.40
2017-06-08T13:01:39.660Z,73.40
2017-06-08T13:04:07.971Z,72.60
2017-06-08T13:06:36.565Z,72.60
2017-06-08T13:09:05.750Z,73.60
2017-06-08T13:11:33.976Z,72.00
2017-06-08T13:14:02.515Z,73.60
2017-06-08T13:16:30.839Z,73.00
2017-06-08T13:18:59.046Z,72.80
2017-06-08T13:21:27.687Z,73.10
2017-06-08T13:23:55.988Z,73.50
2017-06-08T13:26:24.201Z,75.50
2017-06-08T13:28:52.770Z,76.10
2017-06-08T13:31:20.982Z,76.00
2017-06-08T13:33:49.197Z,77.20
2017-06-08T13:36:19.203Z,76.20
2017-06-08T13:38:47.427Z,77.40
2017-06-08T13:41:15.626Z,76.50
2017-06-08T13:43:44.184Z,78.10
2017-06-08T13:46:13.139Z,77.10
2017-06-08T13:48:41.482Z,77.10
2017-06-08T13:51:10.059Z,77.00
2017-06-08T13:53:38.356Z,76.40
2017-06-08T13:56:06.563Z,78.10
2017-06-08T13:58:35.351Z,77.90
2017-06-08T14:01:03.547Z,76.30
2017-06-08T14:03:31.762Z,76.60
2017-06-08T14:06:00.294Z,77.50
2017-06-08T14:08:28.487Z,76.10
2017-06-08T14:10:57.429Z,74.60
2017-06-08T14:13:25.998Z,74.60
2017-06-08T14:15:55.214Z,75.20
2017-06-08T14:18:23.436Z,74.70
2017-06-08T14:20:52.066Z,74.80
2017-06-08T14:23:20.352Z,74.30
2017-06-08T14:25:48.550Z,73.10
2017-06-08T14:28:17.295Z,71.30
2017-06-08T14:30:45.607Z,73.20
2017-06-08T14:33:13.847Z,71.60
2017-06-08T14:35:42.442Z,71.20
2017-06-08T14:38:10.638Z,73.10
2017-06-08T14:40:38.847Z,72.30
2017-06-08T14:43:07.546Z,71.70
2017-06-08T14:45:35.736Z,72.50
2017-06-08T14:48:03.950Z,71.20
2017-06-08T14:50:32.554Z,72.50
2017-06-08T14:53:00.815Z,71.00
2017-06-08T14:55:29.031Z,70.40
2017-06-08T14:57:57.590Z,70.60
2017-06-08T15:00:25.832Z,70.20
2017-06-08T15:02:54.213Z,70.60
2017-06-08T15:05:23.335Z,70.90
2017-06-08T15:07:51.702Z,69.60
2017-06-08T15:10:19.931Z,71.20
2017-06-08T15:12:48.567Z,70.00
2017-06-08T15:15:16.770Z,70.10
2017-06-08T15:17:44.971Z,70.50
2017-06-08T15:20:13.534Z,70.90
2017-06-08T15:22:41.730Z,71.50
2017-06-08T15:25:09.951Z,73.10
2017-06-08T15:27:38.528Z,72.30
2017-06-08T15:30:06.777Z,72.70
2017-06-08T15:32:35.743Z,75.60
2017-06-08T15:35:04.324Z,75.60
2017-06-08T15:37:32.526Z,74.70
2017-06-08T15:40:01.490Z,76.00
2017-06-08T15:42:30.089Z,76.00
2017-06-08T15:44:58.350Z,75.60
2017-06-08T15:47:26.565Z,75.20
2017-06-08T15:49:55.280Z,75.70
2017-06-08T15:52:23.447Z,76.00
2017-06-08T15:54:51.813Z,75.30
2017-06-08T15:57:20.551Z,76.00
2017-06-08T15:59:48.759Z,76.00
2017-06-08T16:02:16.970Z,75.30
2017-06-08T16:04:45.604Z,76.00
2017-06-08T16:07:14.657Z,76.00
2017-06-08T16:09:42.850Z,76.00
2017-06-08T16:12:11.414Z,77.30
2017-06-08T16:14:39.623Z,76.70
2017-06-08T16:17:07.834Z,77.00
2017-06-08T16:19:36.394Z,76.90
2017-06-08T16:22:05.405Z,76.00
2017-06-08T16:24:33.591Z,76.00
2017-06-08T16:27:02.132Z,77.10
2017-06-08T16:29:31.163Z,76.30
2017-06-08T16:31:59.423Z,76.30
2017-06-08T16:34:28.188Z,76.40
2017-06-08T16:36:56.443Z,76.50
2017-06-08T16:39:24.669Z,76.40
2017-06-08T16:41:53.202Z,76.40
2017-06-08T16:44:21.456Z,75.80
2017-06-08T16:46:49.727Z,76.40
2017-06-08T16:49:18.335Z,75.40
2017-06-08T16:51:46.557Z,75.10
2017-06-08T16:54:14.741Z,75.90
2017-06-08T16:56:43.355Z,74.50
2017-06-08T16:59:11.593Z,75.20
2017-06-08T17:01:39.813Z,74.80
2017-06-08T17:04:08.415Z,74.70
2017-06-08T17:06:37.399Z,73.80
2017-06-08T17:09:06.416Z,73.90
2017-06-08T17:11:35.056Z,73.70
2017-06-08T17:14:03.259Z,73.20
2017-06-08T17:16:31.500Z,74.00
2017-06-08T17:19:00.130Z,73.20
2017-06-08T17:21:28.335Z,73.50
2017-06-08T17:23:56.541Z,73.10
2017-06-08T17:26:25.126Z,73.10
2017-06-08T17:28:53.457Z,72.40
2017-06-08T17:31:21.726Z,72.80
2017-06-08T17:33:50.295Z,73.10
2017-06-08T17:36:18.492Z,72.30
2017-06-08T17:38:46.778Z,72.80
2017-06-08T17:41:15.391Z,73.70
2017-06-08T17:43:43.656Z,73.90
2017-06-08T17:46:11.863Z,73.00
2017-06-08T17:48:40.527Z,73.70
2017-06-08T17:51:09.539Z,73.70
2017-06-08T17:53:37.774Z,73.60
2017-06-08T17:56:06.342Z,73.90
2017-06-08T17:58:34.606Z,73.40
2017-06-08T18:01:02.803Z,73.60
2017-06-08T18:03:31.377Z,73.70
2017-06-08T18:05:59.572Z,72.90
2017-06-08T18:08:27.783Z,73.00
2017-06-08T18:10:56.328Z,72.70
2017-06-08T18:13:24.568Z,73.40
2017-06-08T18:15:52.898Z,74.40
2017-06-08T18:18:21.705Z,74.50
2017-06-08T18:20:49.910Z,74.40
2017-06-08T18:23:18.284Z,74.80
2017-06-08T18:25:46.867Z,74.70
2017-06-08T18:28:15.211Z,75.40
2017-06-08T18:30:43.424Z,75.30
2017-06-08T18:33:12.030Z,75.70
2017-06-08T18:35:40.216Z,76.20
2017-06-08T18:38:08.426Z,76.20
2017-06-08T18:40:37.196Z,76.10
2017-06-08T18:43:05.445Z,76.90
2017-06-08T18:45:33.636Z,76.00
2017-06-08T18:48:02.194Z,77.10
2017-06-08T18:50:30.390Z,77.00
2017-06-08T18:52:58.647Z,76.80
2017-06-08T18:55:27.254Z,76.80
2017-06-08T18:57:55.472Z,77.00
2017-06-08T19:00:23.707Z,77.70
2017-06-08T19:02:52.259Z,77.30
2017-06-08T19:05:21.327Z,77.80
2017-06-08T19:07:49.543Z,77.70
2017-06-08T19:10:18.891Z,77.60
2017-06-08T19:12:47.162Z,77.50
2017-06-08T19:15:15.379Z,77.30
2017-06-08T19:17:43.954Z,77.00
2017-06-08T19:20:12.212Z,76.80
2017-06-08T19:22:40.441Z,76.40
2017-06-08T19:25:09.017Z,77.80
2017-06-08T19:27:37.257Z,77.60
2017-06-08T19:30:05.489Z,77.30
2017-06-08T19:32:34.031Z,77.30
2017-06-08T19:35:03.056Z,77.50
2017-06-08T19:37:31.263Z,77.60
2017-06-08T19:39:59.843Z,77.40
2017-06-08T19:42:28.094Z,78.10
2017-06-08T19:44:56.307Z,77.50
2017-06-08T19:47:25.013Z,77.70
2017-06-08T19:49:54.014Z,77.80
2017-06-08T19:52:22.252Z,77.70
2017-06-08T19:54:51.651Z,77.30
2017-06-08T19:57:19.861Z,77.30
2017-06-08T19:59:48.856Z,77.60
2017-06-08T20:02:18.248Z,77.50
2017-06-08T20:04:46.491Z,77.50
2017-06-08T20:07:14.738Z,77.80
2017-06-08T20:09:43.396Z,77.90
2017-06-08T20:12:12.368Z,78.30
2017-06-08T20:14:40.590Z,78.30
2017-06-08T20:17:09.229Z,78.20
2017-06-08T20:19:37.447Z,78.00
2017-06-08T20:22:05.659Z,79.20
2017-06-08T20:24:34.185Z,78.50
2017-06-08T20:27:02.399Z,79.10
2017-06-08T20:29:30.625Z,78.80
2017-06-08T20:31:59.234Z,79.50
2017-06-08T20:34:27.539Z,80.10
2017-06-08T20:36:55.833Z,80.00
2017-06-08T20:39:24.418Z,80.40
2017-06-08T20:41:52.584Z,80.90
2017-06-08T20:44:20.794Z,81.10
2017-06-08T20:46:49.346Z,81.70
2017-06-08T20:49:17.571Z,82.00
2017-06-08T20:51:45.799Z,81.80
2017-06-08T20:54:14.468Z,82.10
2017-06-08T20:56:42.710Z,82.40
2017-06-08T20:59:10.942Z,81.70
2017-06-08T21:01:39.498Z,82.50
2017-06-08T21:04:07.743Z,82.80
2017-06-08T21:06:35.931Z,83.00
2017-06-08T21:09:04.685Z,82.40
2017-06-08T21:11:32.886Z,82.40
2017-06-08T21:14:01.102Z,82.40
2017-06-08T21:16:29.793Z,82.40
2017-06-08T21:18:57.973Z,83.00
2017-06-08T21:21:26.984Z,83.30
2017-06-08T21:23:55.728Z,83.30
2017-06-08T21:26:23.940Z,82.70
2017-06-08T21:28:52.151Z,82.30
2017-06-08T21:31:20.712Z,82.70
2017-06-08T21:33:48.955Z,82.30
2017-06-08T21:36:17.933Z,82.30
2017-06-08T21:38:47.326Z,82.30
2017-06-08T21:41:15.621Z,82.30
2017-06-08T21:43:43.883Z,82.30
2017-06-08T21:46:12.410Z,82.60
2017-06-08T21:48:40.610Z,82.40
2017-06-08T21:51:08.817Z,82.40
2017-06-08T21:53:38.155Z,82.40
2017-06-08T21:56:06.360Z,82.30
2017-06-08T21:58:34.584Z,82.40
2017-06-08T22:01:03.162Z,82.40
2017-06-08T22:03:31.399Z,82.60
2017-06-08T22:05:59.624Z,83.10
2017-06-08T22:08:28.198Z,82.90
2017-06-08T22:10:56.421Z,82.20
2017-06-08T22:13:24.651Z,82.60
2017-06-08T22:15:53.269Z,82.80
2017-06-08T22:18:21.566Z,82.30
2017-06-08T22:20:49.759Z,82.30
2017-06-08T22:23:19.141Z,82.20
2017-06-08T22:25:47.377Z,82.30
2017-06-08T22:28:15.588Z,82.30
2017-06-08T22:30:44.156Z,82.20
2017-06-08T22:33:12.365Z,82.90
2017-06-08T22:35:41.327Z,83.40
2017-06-08T22:38:09.927Z,83.20
2017-06-08T22:40:38.125Z,83.10
2017-06-08T22:43:06.354Z,83.80
2017-06-08T22:45:34.931Z,84.20
2017-06-08T22:48:03.123Z,83.90
2017-06-08T22:50:31.333Z,83.80
2017-06-08T22:52:59.891Z,83.80
2017-06-08T22:55:28.075Z,83.50
2017-06-08T22:57:56.242Z,84.00
2017-06-08T23:00:25.622Z,83.80
2017-06-08T23:02:53.859Z,83.80
2017-06-08T23:05:22.110Z,83.80
2017-06-08T23:07:50.671Z,84.00
2017-06-08T23:10:19.627Z,84.80
2017-06-08T23:12:47.842Z,84.80
2017-06-08T23:15:23.037Z,85.10
2017-06-08T23:17:52.842Z,84.90
2017-06-08T23:20:21.427Z,84.90
2017-06-08T23:22:49.650Z,85.00
2017-06-08T23:25:17.873Z,85.30
2017-06-08T23:27:54.047Z,85.40
2017-06-08T23:30:22.231Z,85.50
2017-06-08T23:32:50.429Z,85.90
2017-06-08T23:35:18.952Z,85.70
2017-06-08T23:37:47.132Z,86.30
2017-06-08T23:40:15.367Z,86.70
2017-06-08T23:42:43.878Z,87.20
2017-06-08T23:45:12.087Z,87.00
2017-06-08T23:47:40.266Z,87.10
2017-06-08T23:50:08.817Z,87.70
2017-06-08T23:52:37.015Z,87.90
2017-06-08T23:55:05.211Z,87.60
2017-06-08T23:57:34.539Z,87.40
